createdAt,value
2017-03-31T00:00:28.290Z,960.33
2017-03-31T00:01:28.569Z,960.30
2017-03-31T00:02:31.737Z,960.26
2017-03-31T00:03:22.853Z,960.26
2017-03-31T00:04:19.199Z,960.29
2017-03-31T00:05:23.229Z,960.29
2017-03-31T00:06:22.296Z,960.29
2017-03-31T00:07:28.563Z,960.27
2017-03-31T00:08:22.641Z,960.21
2017-03-31T00:09:21.277Z,960.21
2017-03-31T00:10:27.678Z,960.23
2017-03-31T00:11:22.796Z,960.20
2017-03-31T00:12:21.485Z,960.18
2017-03-31T00:13:28.266Z,960.21
2017-03-31T00:14:23.932Z,960.23
2017-03-31T00:15:22.979Z,960.21
2017-03-31T00:16:23.379Z,960.18
2017-03-31T00:17:22.857Z,960.14
2017-03-31T00:18:23.935Z,960.20
2017-03-31T00:19:23.023Z,960.17
2017-03-31T00:20:23.153Z,960.12
2017-03-31T00:21:26.182Z,960.16
2017-03-31T00:22:23.299Z,960.14
2017-03-31T00:23:21.723Z,960.13
2017-03-31T00:24:27.078Z,960.13
2017-03-31T00:25:22.984Z,960.10
2017-03-31T00:26:22.610Z,960.06
2017-03-31T00:27:22.652Z,960.06
2017-03-31T00:28:22.761Z,960.01
2017-03-31T00:29:20.854Z,960.06
2017-03-31T00:30:20.967Z,960.02
2017-03-31T00:31:19.030Z,960.06
2017-03-31T00:32:22.661Z,960.00
2017-03-31T00:33:22.675Z,960.02
2017-03-31T00:34:27.560Z,960.04
2017-03-31T00:35:27.032Z,960.02
2017-03-31T00:36:23.238Z,960.06
2017-03-31T00:37:23.236Z,960.03
2017-03-31T00:38:27.191Z,959.98
2017-03-31T00:39:22.541Z,960.01
2017-03-31T00:40:20.992Z,959.97
2017-03-31T00:41:22.386Z,959.99
2017-03-31T00:42:24.110Z,959.96
2017-03-31T00:43:21.477Z,959.98
2017-03-31T00:44:21.772Z,959.96
2017-03-31T00:45:28.322Z,959.90
2017-03-31T00:46:22.328Z,959.92
2017-03-31T00:47:22.464Z,959.93
2017-03-31T00:48:22.876Z,959.91
2017-03-31T00:49:28.099Z,959.90
2017-03-31T00:50:27.081Z,959.94
2017-03-31T00:51:22.884Z,959.89
2017-03-31T00:52:22.660Z,959.84
2017-03-31T00:53:21.766Z,959.84
2017-03-31T00:54:27.451Z,959.84
2017-03-31T00:55:19.870Z,959.83
2017-03-31T00:56:28.718Z,959.81
2017-03-31T00:57:28.068Z,959.83
2017-03-31T00:58:22.656Z,959.81
2017-03-31T00:59:22.986Z,959.84
2017-03-31T01:00:22.844Z,959.84
2017-03-31T01:01:23.177Z,959.81
2017-03-31T01:02:24.224Z,959.79
2017-03-31T01:03:18.339Z,959.74
2017-03-31T01:04:17.691Z,959.71
2017-03-31T01:05:21.282Z,959.70
2017-03-31T01:06:22.451Z,959.70
2017-03-31T01:07:23.221Z,959.73
2017-03-31T01:08:17.269Z,959.69
2017-03-31T01:09:32.163Z,959.71
2017-03-31T01:10:27.235Z,959.67
2017-03-31T01:11:21.690Z,959.68
2017-03-31T01:12:23.774Z,959.70
2017-03-31T01:13:21.098Z,959.68
2017-03-31T01:14:23.228Z,959.66
2017-03-31T01:15:19.811Z,959.67
2017-03-31T01:16:22.637Z,959.68
2017-03-31T01:17:21.729Z,959.66
2017-03-31T01:18:22.372Z,959.67
2017-03-31T01:19:23.066Z,959.68
2017-03-31T01:20:22.318Z,959.66
2017-03-31T01:21:26.959Z,959.69
2017-03-31T01:22:21.303Z,959.67
2017-03-31T01:23:20.472Z,959.69
2017-03-31T01:24:22.584Z,959.67
2017-03-31T01:25:17.160Z,959.66
2017-03-31T01:26:21.072Z,959.67
2017-03-31T01:27:19.917Z,959.67
2017-03-31T01:28:20.063Z,959.68
2017-03-31T01:29:23.188Z,959.64
2017-03-31T01:30:21.726Z,959.66
2017-03-31T01:31:27.971Z,959.65
2017-03-31T01:32:27.919Z,959.67
2017-03-31T01:33:27.676Z,959.66
2017-03-31T01:34:24.148Z,959.57
2017-03-31T01:35:25.674Z,959.60
2017-03-31T01:36:27.778Z,959.60
2017-03-31T01:37:27.678Z,959.62
2017-03-31T01:38:22.709Z,959.63
2017-03-31T01:39:18.855Z,959.60
2017-03-31T01:40:21.064Z,959.62
2017-03-31T01:41:28.248Z,959.61
2017-03-31T01:42:27.780Z,959.55
2017-03-31T01:43:23.130Z,959.56
2017-03-31T01:44:23.350Z,959.56
2017-03-31T01:45:26.298Z,959.58
2017-03-31T01:46:21.479Z,959.59
2017-03-31T01:47:22.605Z,959.56
2017-03-31T01:48:22.487Z,959.57
2017-03-31T01:49:27.748Z,959.58
2017-03-31T01:50:20.905Z,959.56
2017-03-31T01:51:14.107Z,959.54
2017-03-31T01:52:23.051Z,959.50
2017-03-31T01:53:23.168Z,959.51
2017-03-31T01:54:22.516Z,959.51
2017-03-31T01:55:27.293Z,959.48
2017-03-31T01:56:27.400Z,959.48
2017-03-31T01:57:27.139Z,959.46
2017-03-31T01:58:22.874Z,959.41
2017-03-31T01:59:23.612Z,959.46
2017-03-31T02:00:27.983Z,959.45
2017-03-31T02:01:22.233Z,959.41
2017-03-31T02:02:21.304Z,959.43
2017-03-31T02:03:25.748Z,959.46
2017-03-31T02:04:21.786Z,959.40
2017-03-31T02:05:22.990Z,959.44
2017-03-31T02:06:21.792Z,959.43
2017-03-31T02:07:26.095Z,959.43
2017-03-31T02:08:27.211Z,959.48
2017-03-31T02:09:19.307Z,959.46
2017-03-31T02:10:27.638Z,959.46
2017-03-31T02:11:26.580Z,959.46
2017-03-31T02:12:22.488Z,959.44
2017-03-31T02:13:22.894Z,959.46
2017-03-31T02:14:28.094Z,959.42
2017-03-31T02:15:21.727Z,959.44
2017-03-31T02:16:22.308Z,959.43
2017-03-31T02:17:22.446Z,959.42
2017-03-31T02:18:22.564Z,959.38
2017-03-31T02:19:22.982Z,959.39
2017-03-31T02:20:23.214Z,959.46
2017-03-31T02:21:22.451Z,959.40
2017-03-31T02:22:22.462Z,959.37
2017-03-31T02:23:28.164Z,959.32
2017-03-31T02:24:22.439Z,959.31
2017-03-31T02:25:20.623Z,959.26
2017-03-31T02:26:22.767Z,959.26
2017-03-31T02:27:26.613Z,959.27
2017-03-31T02:28:22.801Z,959.24
2017-03-31T02:29:25.335Z,959.23
2017-03-31T02:30:20.345Z,959.20
2017-03-31T02:31:20.019Z,959.18
2017-03-31T02:32:28.186Z,959.22
2017-03-31T02:33:28.226Z,959.19
2017-03-31T02:34:22.531Z,959.15
2017-03-31T02:35:30.452Z,959.17
2017-03-31T02:36:21.081Z,959.19
2017-03-31T02:37:21.929Z,959.13
2017-03-31T02:38:23.007Z,959.16
2017-03-31T02:39:21.158Z,959.11
2017-03-31T02:40:20.388Z,959.10
2017-03-31T02:41:22.531Z,959.10
2017-03-31T02:42:24.178Z,959.12
2017-03-31T02:43:19.968Z,959.10
2017-03-31T02:44:26.459Z,959.12
2017-03-31T02:45:27.621Z,959.06
2017-03-31T02:46:26.595Z,959.09
2017-03-31T02:47:22.608Z,959.06
2017-03-31T02:48:24.335Z,959.02
2017-03-31T02:49:21.368Z,959.08
2017-03-31T02:50:27.204Z,959.05
2017-03-31T02:51:20.462Z,959.08
2017-03-31T02:52:19.608Z,959.06
2017-03-31T02:53:20.398Z,959.07
2017-03-31T02:54:18.110Z,959.07
2017-03-31T02:55:20.332Z,959.04
2017-03-31T02:56:20.612Z,959.04
2017-03-31T02:57:27.441Z,959.02
2017-03-31T02:58:21.397Z,959.04
2017-03-31T02:59:32.720Z,959.06
2017-03-31T03:00:22.830Z,959.06
2017-03-31T03:01:22.981Z,959.02
2017-03-31T03:02:26.450Z,959.04
2017-03-31T03:03:21.015Z,959.02
2017-03-31T03:04:19.508Z,958.98
2017-03-31T03:05:27.448Z,959.05
2017-03-31T03:06:23.318Z,959.04
2017-03-31T03:07:23.990Z,959.00
2017-03-31T03:08:28.264Z,959.03
2017-03-31T03:09:27.454Z,959.02
2017-03-31T03:10:22.647Z,958.96
2017-03-31T03:11:18.813Z,958.95
2017-03-31T03:12:19.445Z,958.96
2017-03-31T03:13:21.187Z,958.93
2017-03-31T03:14:22.369Z,958.93
2017-03-31T03:15:16.948Z,958.90
2017-03-31T03:16:23.213Z,958.98
2017-03-31T03:17:20.580Z,958.93
2017-03-31T03:18:21.039Z,958.93
2017-03-31T03:19:26.871Z,958.92
2017-03-31T03:20:20.988Z,958.92
2017-03-31T03:21:23.459Z,958.91
2017-03-31T03:22:32.449Z,958.87
2017-03-31T03:23:27.462Z,958.88
2017-03-31T03:24:22.745Z,958.87
2017-03-31T03:25:23.429Z,958.89
2017-03-31T03:26:21.686Z,958.89
2017-03-31T03:27:26.476Z,958.88
2017-03-31T03:28:22.827Z,958.88
2017-03-31T03:29:27.880Z,958.85
2017-03-31T03:30:21.936Z,958.90
2017-03-31T03:31:28.173Z,958.86
2017-03-31T03:32:27.855Z,958.83
2017-03-31T03:33:23.106Z,958.84
2017-03-31T03:34:27.438Z,958.80
2017-03-31T03:35:21.188Z,958.84
2017-03-31T03:36:23.293Z,958.83
2017-03-31T03:37:24.114Z,958.77
2017-03-31T03:38:19.261Z,958.77
2017-03-31T03:39:28.582Z,958.76
2017-03-31T03:40:22.779Z,958.76
2017-03-31T03:41:22.903Z,958.75
2017-03-31T03:42:27.450Z,958.76
2017-03-31T03:43:22.384Z,958.70
2017-03-31T03:44:22.718Z,958.70
2017-03-31T03:45:18.838Z,958.66
2017-03-31T03:46:23.345Z,958.68
2017-03-31T03:47:27.621Z,958.67
2017-03-31T03:48:22.176Z,958.68
2017-03-31T03:49:20.499Z,958.64
2017-03-31T03:50:27.723Z,958.71
2017-03-31T03:51:21.552Z,958.67
2017-03-31T03:52:20.938Z,958.67
2017-03-31T03:53:23.048Z,958.66
2017-03-31T03:54:27.879Z,958.64
2017-03-31T03:55:21.464Z,958.65
2017-03-31T03:56:16.063Z,958.66
2017-03-31T03:57:27.451Z,958.68
2017-03-31T03:58:28.753Z,958.69
2017-03-31T03:59:27.070Z,958.65
2017-03-31T04:00:22.571Z,958.64
2017-03-31T04:01:22.698Z,958.69
2017-03-31T04:02:27.828Z,958.68
2017-03-31T04:03:28.023Z,958.69
2017-03-31T04:04:22.954Z,958.70
2017-03-31T04:05:21.553Z,958.69
2017-03-31T04:06:27.014Z,958.69
2017-03-31T04:07:21.635Z,958.71
2017-03-31T04:08:32.452Z,958.70
2017-03-31T04:09:32.189Z,958.65
2017-03-31T04:10:21.474Z,958.67
2017-03-31T04:11:20.380Z,958.67
2017-03-31T04:12:20.424Z,958.62
2017-03-31T04:13:22.496Z,958.66
2017-03-31T04:14:27.046Z,958.59
2017-03-31T04:15:23.226Z,958.66
2017-03-31T04:16:23.340Z,958.64
2017-03-31T04:17:21.567Z,958.59
2017-03-31T04:18:25.017Z,958.59
2017-03-31T04:19:26.832Z,958.59
2017-03-31T04:20:22.584Z,958.56
2017-03-31T04:21:20.263Z,958.54
2017-03-31T04:22:27.303Z,958.55
2017-03-31T04:23:27.399Z,958.57
2017-03-31T04:24:21.008Z,958.56
2017-03-31T04:25:27.144Z,958.56
2017-03-31T04:26:22.557Z,958.61
2017-03-31T04:27:22.674Z,958.57
2017-03-31T04:28:22.788Z,958.57
2017-03-31T04:29:27.152Z,958.55
2017-03-31T04:30:23.208Z,958.55
2017-03-31T04:31:27.911Z,958.52
2017-03-31T04:32:21.881Z,958.56
2017-03-31T04:33:22.983Z,958.57
2017-03-31T04:34:17.633Z,958.54
2017-03-31T04:35:23.746Z,958.57
2017-03-31T04:36:27.905Z,958.54
2017-03-31T04:37:19.243Z,958.52
2017-03-31T04:38:23.514Z,958.56
2017-03-31T04:39:27.292Z,958.53
2017-03-31T04:40:26.573Z,958.52
2017-03-31T04:41:20.235Z,958.51
2017-03-31T04:42:27.355Z,958.56
2017-03-31T04:43:28.184Z,958.54
2017-03-31T04:44:23.024Z,958.54
2017-03-31T04:45:28.027Z,958.59
2017-03-31T04:46:28.101Z,958.54
2017-03-31T04:47:27.849Z,958.52
2017-03-31T04:48:22.935Z,958.48
2017-03-31T04:49:28.004Z,958.47
2017-03-31T04:50:26.783Z,958.49
2017-03-31T04:51:27.686Z,958.47
2017-03-31T04:52:23.150Z,958.49
2017-03-31T04:53:23.268Z,958.61
2017-03-31T04:54:28.034Z,958.52
2017-03-31T04:55:28.183Z,958.50
2017-03-31T04:56:23.264Z,958.49
2017-03-31T04:57:23.487Z,958.49
2017-03-31T04:58:23.511Z,958.45
2017-03-31T04:59:28.203Z,958.46
2017-03-31T05:00:21.106Z,958.48
2017-03-31T05:01:18.945Z,958.44
2017-03-31T05:02:28.009Z,958.46
2017-03-31T05:03:24.636Z,958.50
2017-03-31T05:04:27.453Z,958.55
2017-03-31T05:05:22.559Z,958.58
2017-03-31T05:06:19.695Z,958.62
2017-03-31T05:07:21.520Z,958.54
2017-03-31T05:08:32.457Z,958.55
2017-03-31T05:09:22.287Z,958.60
2017-03-31T05:10:22.624Z,958.63
2017-03-31T05:11:23.742Z,958.56
2017-03-31T05:12:23.203Z,958.65
2017-03-31T05:13:23.563Z,958.62
2017-03-31T05:14:33.218Z,958.68
2017-03-31T05:15:27.837Z,958.73
2017-03-31T05:16:27.333Z,958.68
2017-03-31T05:17:20.464Z,958.67
2017-03-31T05:18:22.563Z,958.67
2017-03-31T05:20:28.223Z,958.62
2017-03-31T05:21:22.838Z,958.66
2017-03-31T05:22:23.966Z,958.67
2017-03-31T05:23:23.082Z,958.72
2017-03-31T05:24:27.854Z,958.64
2017-03-31T05:25:32.458Z,958.68
2017-03-31T05:26:27.753Z,958.61
2017-03-31T05:27:19.963Z,958.60
2017-03-31T05:28:20.670Z,958.65
2017-03-31T05:29:33.232Z,958.60
2017-03-31T05:30:27.457Z,958.58
2017-03-31T05:31:22.604Z,958.61
2017-03-31T05:32:23.212Z,958.59
2017-03-31T05:33:19.322Z,958.63
2017-03-31T05:34:32.794Z,958.58
2017-03-31T05:35:27.601Z,958.58
2017-03-31T05:36:27.476Z,958.56
2017-03-31T05:37:26.594Z,958.61
2017-03-31T05:38:19.499Z,958.57
2017-03-31T05:39:24.037Z,958.59
2017-03-31T05:40:21.264Z,958.57
2017-03-31T05:41:17.300Z,958.55
2017-03-31T05:42:27.454Z,958.57
2017-03-31T05:43:19.216Z,958.58
2017-03-31T05:44:23.327Z,958.53
2017-03-31T05:45:22.443Z,958.57
2017-03-31T05:46:23.899Z,958.55
2017-03-31T05:47:18.923Z,958.56
2017-03-31T05:48:19.003Z,958.55
2017-03-31T05:49:23.107Z,958.56
2017-03-31T05:50:21.498Z,958.51
2017-03-31T05:51:21.072Z,958.56
2017-03-31T05:52:22.313Z,958.57
2017-03-31T05:53:22.609Z,958.55
2017-03-31T05:54:18.683Z,958.54
2017-03-31T05:55:28.114Z,958.53
2017-03-31T05:56:20.845Z,958.54
2017-03-31T05:57:22.758Z,958.54
2017-03-31T05:58:27.866Z,958.55
2017-03-31T05:59:21.732Z,958.55
2017-03-31T06:00:21.739Z,958.57
2017-03-31T06:01:17.773Z,958.53
2017-03-31T06:02:17.461Z,958.51
2017-03-31T06:03:28.177Z,958.53
2017-03-31T06:04:23.387Z,958.53
2017-03-31T06:05:22.061Z,958.52
2017-03-31T06:06:27.234Z,958.54
2017-03-31T06:07:22.352Z,958.46
2017-03-31T06:08:27.380Z,958.48
2017-03-31T06:09:22.385Z,958.48
2017-03-31T06:10:23.249Z,958.46
2017-03-31T06:11:21.434Z,958.50
2017-03-31T06:12:23.334Z,958.50
2017-03-31T06:13:21.446Z,958.45
2017-03-31T06:14:27.286Z,958.44
2017-03-31T06:15:18.323Z,958.43
2017-03-31T06:16:23.655Z,958.46
2017-03-31T06:17:33.187Z,958.44
2017-03-31T06:18:25.018Z,958.43
2017-03-31T06:20:20.831Z,958.43
2017-03-31T06:21:32.310Z,958.40
2017-03-31T06:22:20.255Z,958.43
2017-03-31T06:23:22.437Z,958.41
2017-03-31T06:24:27.407Z,958.44
2017-03-31T06:25:22.746Z,958.41
2017-03-31T06:26:23.661Z,958.40
2017-03-31T06:27:22.993Z,958.42
2017-03-31T06:28:27.813Z,958.41
2017-03-31T06:29:23.682Z,958.42
2017-03-31T06:31:23.742Z,958.38
2017-03-31T06:32:27.495Z,958.43
2017-03-31T06:33:46.774Z,958.35
2017-03-31T06:34:27.937Z,958.35
2017-03-31T06:36:22.373Z,958.33
2017-03-31T06:37:32.614Z,958.34
2017-03-31T06:38:28.128Z,958.34
2017-03-31T06:39:23.782Z,958.33
2017-03-31T06:40:33.143Z,958.31
2017-03-31T06:41:28.282Z,958.34
2017-03-31T06:42:23.969Z,958.31
2017-03-31T06:43:23.627Z,958.29
2017-03-31T06:44:28.454Z,958.31
2017-03-31T06:45:23.131Z,958.31
2017-03-31T06:46:24.066Z,958.27
2017-03-31T06:47:23.066Z,958.31
2017-03-31T06:48:22.465Z,958.31
2017-03-31T06:49:17.491Z,958.27
2017-03-31T06:50:28.291Z,958.26
2017-03-31T06:51:22.448Z,958.28
2017-03-31T06:52:28.100Z,958.31
2017-03-31T06:53:25.207Z,958.30
2017-03-31T06:54:28.544Z,958.24
2017-03-31T06:55:22.846Z,958.30
2017-03-31T06:56:31.438Z,958.27
2017-03-31T06:57:22.047Z,958.26
2017-03-31T06:58:27.473Z,958.26
2017-03-31T06:59:22.210Z,958.25
2017-03-31T07:00:22.968Z,958.25
2017-03-31T07:01:23.173Z,958.22
2017-03-31T07:02:28.118Z,958.24
2017-03-31T07:03:21.689Z,958.22
2017-03-31T07:05:24.190Z,958.20
2017-03-31T07:06:19.855Z,958.20
2017-03-31T07:07:23.853Z,958.20
2017-03-31T07:08:32.422Z,958.23
2017-03-31T07:09:27.405Z,958.17
2017-03-31T07:10:22.306Z,958.20
2017-03-31T07:11:23.688Z,958.18
2017-03-31T07:12:28.139Z,958.21
2017-03-31T07:13:22.203Z,958.19
2017-03-31T07:14:27.294Z,958.17
2017-03-31T07:15:27.462Z,958.19
2017-03-31T07:16:23.446Z,958.22
2017-03-31T07:17:33.157Z,958.20
2017-03-31T07:18:21.419Z,958.21
2017-03-31T07:19:20.715Z,958.20
2017-03-31T07:20:27.654Z,958.20
2017-03-31T07:21:22.470Z,958.21
2017-03-31T07:22:24.179Z,958.23
2017-03-31T07:23:23.296Z,958.18
2017-03-31T07:24:24.005Z,958.22
2017-03-31T07:25:23.191Z,958.17
2017-03-31T07:26:27.346Z,958.11
2017-03-31T07:27:22.983Z,958.16
2017-03-31T07:28:27.457Z,958.17
2017-03-31T07:29:22.218Z,958.17
2017-03-31T07:30:22.476Z,958.15
2017-03-31T07:31:21.545Z,958.14
2017-03-31T07:32:21.887Z,958.13
2017-03-31T07:33:23.792Z,958.13
2017-03-31T07:34:23.919Z,958.13
2017-03-31T07:35:28.026Z,958.12
2017-03-31T07:36:23.245Z,958.11
2017-03-31T07:37:24.360Z,958.11
2017-03-31T07:38:18.419Z,958.06
2017-03-31T07:39:24.086Z,958.07
2017-03-31T07:40:18.195Z,958.05
2017-03-31T07:41:27.328Z,958.08
2017-03-31T07:42:22.519Z,958.03
2017-03-31T07:43:27.095Z,958.05
2017-03-31T07:44:24.236Z,958.05
2017-03-31T07:45:27.367Z,958.00
2017-03-31T07:46:22.359Z,958.01
2017-03-31T07:47:22.476Z,958.04
2017-03-31T07:48:22.211Z,958.04
2017-03-31T07:49:23.689Z,958.05
2017-03-31T07:50:18.744Z,957.98
2017-03-31T07:51:26.830Z,958.01
2017-03-31T07:52:20.538Z,958.03
2017-03-31T07:53:22.996Z,957.99
2017-03-31T07:54:19.041Z,957.99
2017-03-31T07:55:23.130Z,958.01
2017-03-31T07:56:23.253Z,957.97
2017-03-31T07:57:19.714Z,957.96
2017-03-31T07:58:28.192Z,957.95
2017-03-31T07:59:22.461Z,957.96
2017-03-31T08:00:28.231Z,957.98
2017-03-31T08:01:22.568Z,958.00
2017-03-31T08:02:26.174Z,957.94
2017-03-31T08:03:20.625Z,958.02
2017-03-31T08:04:27.867Z,958.00
2017-03-31T08:05:24.105Z,957.99
2017-03-31T08:06:23.240Z,958.02
2017-03-31T08:07:22.323Z,957.98
2017-03-31T08:08:20.964Z,957.98
2017-03-31T08:09:23.185Z,958.00
2017-03-31T08:10:28.117Z,958.02
2017-03-31T08:11:28.118Z,958.00
2017-03-31T08:12:18.422Z,957.99
2017-03-31T08:13:22.582Z,957.98
2017-03-31T08:14:24.771Z,958.05
2017-03-31T08:15:21.828Z,958.03
2017-03-31T08:16:22.479Z,957.97
2017-03-31T08:17:22.788Z,958.00
2017-03-31T08:18:22.608Z,958.00
2017-03-31T08:19:22.831Z,957.95
2017-03-31T08:20:22.930Z,957.97
2017-03-31T08:21:23.035Z,957.96
2017-03-31T08:22:23.790Z,957.97
2017-03-31T08:23:19.397Z,957.94
2017-03-31T08:24:27.494Z,957.93
2017-03-31T08:25:22.815Z,957.93
2017-03-31T08:26:32.474Z,957.99
2017-03-31T08:27:27.565Z,958.01
2017-03-31T08:28:22.590Z,957.94
2017-03-31T08:29:22.716Z,957.94
2017-03-31T08:30:27.464Z,957.94
2017-03-31T08:31:23.033Z,957.94
2017-03-31T08:32:19.438Z,957.94
2017-03-31T08:33:27.798Z,957.92
2017-03-31T08:34:23.957Z,957.90
2017-03-31T08:35:25.191Z,957.94
2017-03-31T08:36:21.254Z,957.93
2017-03-31T08:37:21.119Z,957.94
2017-03-31T08:38:27.639Z,957.93
2017-03-31T08:39:23.821Z,957.94
2017-03-31T08:40:27.993Z,957.90
2017-03-31T08:41:28.264Z,957.90
2017-03-31T08:42:21.380Z,957.89
2017-03-31T08:43:24.109Z,957.91
2017-03-31T08:44:22.854Z,957.89
2017-03-31T08:45:23.439Z,957.92
2017-03-31T08:46:27.898Z,957.87
2017-03-31T08:47:25.808Z,957.88
2017-03-31T08:48:27.335Z,957.90
2017-03-31T08:49:22.840Z,957.90
2017-03-31T08:50:27.414Z,957.85
2017-03-31T08:51:19.197Z,957.90
2017-03-31T08:52:27.959Z,957.87
2017-03-31T08:53:24.048Z,957.84
2017-03-31T08:54:28.126Z,957.86
2017-03-31T08:55:27.177Z,957.84
2017-03-31T08:56:23.406Z,957.85
2017-03-31T08:57:20.983Z,957.85
2017-03-31T08:58:22.735Z,957.85
2017-03-31T08:59:21.810Z,957.87
2017-03-31T09:00:22.894Z,957.83
2017-03-31T09:01:23.175Z,957.80
2017-03-31T09:02:21.563Z,957.80
2017-03-31T09:03:22.601Z,957.83
2017-03-31T09:04:22.752Z,957.86
2017-03-31T09:05:28.089Z,957.81
2017-03-31T09:06:22.645Z,957.78
2017-03-31T09:07:32.952Z,957.77
2017-03-31T09:08:23.087Z,957.74
2017-03-31T09:09:21.898Z,957.76
2017-03-31T09:10:21.600Z,957.76
2017-03-31T09:11:22.378Z,957.71
2017-03-31T09:12:27.506Z,957.73
2017-03-31T09:13:21.896Z,957.72
2017-03-31T09:14:22.834Z,957.70
2017-03-31T09:15:23.423Z,957.69
2017-03-31T09:16:22.415Z,957.71
2017-03-31T09:17:18.571Z,957.71
2017-03-31T09:18:19.223Z,957.69
2017-03-31T09:19:32.898Z,957.66
2017-03-31T09:20:27.590Z,957.64
2017-03-31T09:21:27.702Z,957.67
2017-03-31T09:22:27.841Z,957.62
2017-03-31T09:23:19.161Z,957.62
2017-03-31T09:24:21.226Z,957.64
2017-03-31T09:25:21.829Z,957.61
2017-03-31T09:26:32.864Z,957.61
2017-03-31T09:27:22.712Z,957.60
2017-03-31T09:28:24.551Z,957.62
2017-03-31T09:29:23.452Z,957.60
2017-03-31T09:30:23.413Z,957.63
2017-03-31T09:31:26.831Z,957.61
2017-03-31T09:32:09.417Z,957.59
2017-03-31T09:33:27.476Z,957.55
2017-03-31T09:34:22.893Z,957.53
2017-03-31T09:35:23.095Z,957.50
2017-03-31T09:36:33.469Z,957.49
2017-03-31T09:37:28.081Z,957.46
2017-03-31T09:38:23.189Z,957.50
2017-03-31T09:39:22.074Z,957.48
2017-03-31T09:40:23.278Z,957.48
2017-03-31T09:41:19.764Z,957.47
2017-03-31T09:42:28.203Z,957.45
2017-03-31T09:43:18.473Z,957.45
2017-03-31T09:44:19.609Z,957.44
2017-03-31T09:45:23.923Z,957.40
2017-03-31T09:46:17.534Z,957.42
2017-03-31T09:47:22.756Z,957.44
2017-03-31T09:48:22.873Z,957.43
2017-03-31T09:49:28.131Z,957.41
2017-03-31T09:50:22.861Z,957.38
2017-03-31T09:51:22.955Z,957.42
2017-03-31T09:52:20.019Z,957.36
2017-03-31T09:53:22.548Z,957.34
2017-03-31T09:54:22.225Z,957.35
2017-03-31T09:55:22.199Z,957.34
2017-03-31T09:56:23.307Z,957.37
2017-03-31T09:57:20.010Z,957.35
2017-03-31T09:58:23.093Z,957.37
2017-03-31T09:59:25.442Z,957.34
2017-03-31T10:00:22.487Z,957.33
2017-03-31T10:01:23.331Z,957.29
2017-03-31T10:02:22.403Z,957.27
2017-03-31T10:03:27.275Z,957.21
2017-03-31T10:04:27.382Z,957.23
2017-03-31T10:05:23.261Z,957.24
2017-03-31T10:06:32.437Z,957.22
2017-03-31T10:07:18.024Z,957.12
2017-03-31T10:08:22.878Z,957.14
2017-03-31T10:09:28.230Z,957.17
2017-03-31T10:10:22.531Z,957.20
2017-03-31T10:11:21.608Z,957.14
2017-03-31T10:12:20.489Z,957.10
2017-03-31T10:13:24.136Z,957.12
2017-03-31T10:14:23.239Z,957.12
2017-03-31T10:15:28.200Z,957.13
2017-03-31T10:16:21.759Z,957.11
2017-03-31T10:17:17.412Z,957.11
2017-03-31T10:18:22.483Z,957.07
2017-03-31T10:19:22.602Z,957.06
2017-03-31T10:20:28.029Z,957.06
2017-03-31T10:21:27.471Z,957.04
2017-03-31T10:22:27.440Z,957.02
2017-03-31T10:23:19.073Z,957.02
2017-03-31T10:24:23.313Z,957.03
2017-03-31T10:25:22.241Z,957.00
2017-03-31T10:26:27.102Z,956.98
2017-03-31T10:27:23.358Z,957.00
2017-03-31T10:28:38.579Z,956.98
2017-03-31T10:29:19.370Z,956.96
2017-03-31T10:30:22.489Z,956.99
2017-03-31T10:31:22.918Z,956.99
2017-03-31T10:32:20.230Z,956.95
2017-03-31T10:33:22.756Z,956.94
2017-03-31T10:34:22.992Z,956.92
2017-03-31T10:35:23.096Z,956.91
2017-03-31T10:36:23.244Z,956.87
2017-03-31T10:37:27.951Z,956.91
2017-03-31T10:38:23.042Z,956.89
2017-03-31T10:39:23.180Z,956.87
2017-03-31T10:40:34.043Z,956.90
2017-03-31T10:41:23.091Z,956.85
2017-03-31T10:42:22.012Z,956.83
2017-03-31T10:43:31.062Z,956.84
2017-03-31T10:44:19.970Z,956.81
2017-03-31T10:45:27.134Z,956.79
2017-03-31T10:46:19.969Z,956.82
2017-03-31T10:47:19.220Z,956.81
2017-03-31T10:48:20.217Z,956.73
2017-03-31T10:49:21.241Z,956.76
2017-03-31T10:50:18.417Z,956.73
2017-03-31T10:51:23.647Z,956.75
2017-03-31T10:52:33.318Z,956.71
2017-03-31T10:53:24.319Z,956.70
2017-03-31T10:54:23.594Z,956.70
2017-03-31T10:55:27.419Z,956.68
2017-03-31T10:57:18.918Z,956.60
2017-03-31T10:58:20.712Z,956.59
2017-03-31T10:59:24.265Z,956.58
2017-03-31T11:00:28.153Z,956.57
2017-03-31T11:01:18.527Z,956.55
2017-03-31T11:02:28.193Z,956.59
2017-03-31T11:03:23.296Z,956.51
2017-03-31T11:04:24.025Z,956.57
2017-03-31T11:05:33.193Z,956.52
2017-03-31T11:06:23.317Z,956.50
2017-03-31T11:07:22.509Z,956.49
2017-03-31T11:08:22.676Z,956.48
2017-03-31T11:09:21.790Z,956.46
2017-03-31T11:10:27.718Z,956.54
2017-03-31T11:11:27.733Z,956.41
2017-03-31T11:12:27.923Z,956.45
2017-03-31T11:13:20.563Z,956.41
2017-03-31T11:14:27.565Z,956.40
2017-03-31T11:15:22.673Z,956.39
2017-03-31T11:16:22.800Z,956.38
2017-03-31T11:17:17.177Z,956.39
2017-03-31T11:18:14.835Z,956.34
2017-03-31T11:19:23.659Z,956.29
2017-03-31T11:20:22.065Z,956.32
2017-03-31T11:21:23.190Z,956.29
2017-03-31T11:22:21.966Z,956.30
2017-03-31T11:23:27.741Z,956.26
2017-03-31T11:24:23.294Z,956.29
2017-03-31T11:25:23.220Z,956.23
2017-03-31T11:26:27.302Z,956.19
2017-03-31T11:27:26.388Z,956.16
2017-03-31T11:29:27.473Z,956.20
2017-03-31T11:30:22.990Z,956.15
2017-03-31T11:31:21.782Z,956.18
2017-03-31T11:32:25.259Z,956.11
2017-03-31T11:33:28.100Z,956.10
2017-03-31T11:34:27.758Z,956.10
2017-03-31T11:35:34.170Z,956.13
2017-03-31T11:36:28.248Z,956.10
2017-03-31T11:37:22.315Z,956.10
2017-03-31T11:38:27.228Z,956.10
2017-03-31T11:39:23.181Z,956.09
2017-03-31T11:40:25.305Z,956.08
2017-03-31T11:41:22.434Z,956.05
2017-03-31T11:42:19.654Z,956.09
2017-03-31T11:43:24.122Z,956.05
2017-03-31T11:44:23.130Z,956.03
2017-03-31T11:45:22.760Z,955.96
2017-03-31T11:46:23.055Z,956.01
2017-03-31T11:47:19.096Z,956.05
2017-03-31T11:48:28.269Z,955.99
2017-03-31T11:49:22.555Z,955.96
2017-03-31T11:50:22.665Z,955.97
2017-03-31T11:51:20.750Z,955.95
2017-03-31T11:52:28.356Z,955.92
2017-03-31T11:53:22.507Z,955.91
2017-03-31T11:54:28.083Z,955.92
2017-03-31T11:55:24.349Z,955.89
2017-03-31T11:56:21.783Z,955.92
2017-03-31T11:57:26.953Z,955.93
2017-03-31T11:58:27.681Z,955.89
2017-03-31T11:59:22.331Z,955.90
2017-03-31T12:00:23.434Z,955.81
2017-03-31T12:01:26.241Z,955.82
2017-03-31T12:02:24.033Z,955.81
2017-03-31T12:03:27.708Z,955.76
2017-03-31T12:04:24.098Z,955.78
2017-03-31T12:05:27.479Z,955.80
2017-03-31T12:06:22.644Z,955.77
2017-03-31T12:07:21.330Z,955.79
2017-03-31T12:08:16.671Z,955.75
2017-03-31T12:09:33.001Z,955.71
2017-03-31T12:10:24.165Z,955.76
2017-03-31T12:11:23.211Z,955.75
2017-03-31T12:12:19.915Z,955.75
2017-03-31T12:13:17.544Z,955.74
2017-03-31T12:14:23.248Z,955.73
2017-03-31T12:15:28.200Z,955.75
2017-03-31T12:16:19.418Z,955.75
2017-03-31T12:17:22.708Z,955.69
2017-03-31T12:18:21.233Z,955.72
2017-03-31T12:19:22.119Z,955.73
2017-03-31T12:20:20.558Z,955.68
2017-03-31T12:21:19.278Z,955.63
2017-03-31T12:22:23.372Z,955.69
2017-03-31T12:23:20.609Z,955.67
2017-03-31T12:24:27.167Z,955.63
2017-03-31T12:25:33.033Z,955.62
2017-03-31T12:26:18.069Z,955.59
2017-03-31T12:27:27.721Z,955.58
2017-03-31T12:28:28.766Z,955.58
2017-03-31T12:29:23.847Z,955.53
2017-03-31T12:30:21.527Z,955.55
2017-03-31T12:31:27.409Z,955.52
2017-03-31T12:32:22.510Z,955.59
2017-03-31T12:33:23.534Z,955.54
2017-03-31T12:34:32.701Z,955.48
2017-03-31T12:35:28.872Z,955.50